Time;durP1;ratioP1;P1;durP2;ratioP2;P2;SDS_P1;SDS_P2;PMS_P1;PMS_P2;Temp;Humidity;BMP_temperature;BMP_pressure;BME280_temperature;BME280_humidity;BME280_pressure;Samples;Min_cycle;Max_cycle;Signal;HPM_P1;HPM_P2
2023/01/21 00:01:04;;;;;;;63.60;26.75;;;-2.80;99.90;;;-4.63;100.00;101652.22;5010583;28;20037;-69
2023/01/21 00:03:30;;;;;;;64.45;26.77;;;-2.80;99.90;;;-4.65;100.00;101648.78;4992634;28;20038;-69
2023/01/21 00:05:57;;;;;;;66.38;28.50;;;-2.80;99.90;;;-4.71;100.00;101644.69;4999724;28;20066;-69
2023/01/21 00:08:23;;;;;;;63.08;26.92;;;-2.80;99.90;;;-4.82;100.00;101647.97;5001172;28;20056;-69
2023/01/21 00:10:49;;;;;;;67.43;28.23;;;-3.00;99.90;;;-4.88;100.00;101650.19;5003846;28;20041;-69
2023/01/21 00:13:15;;;;;;;67.13;28.67;;;-3.10;99.90;;;-4.87;100.00;101657.22;5002488;28;20050;-69
2023/01/21 00:15:40;;;;;;;58.13;25.77;;;-3.10;99.90;;;-5.06;100.00;101653.81;5005096;28;20033;-69
2023/01/21 00:18:07;;;;;;;64.72;26.52;;;-3.20;99.90;;;-5.29;100.00;101664.97;5011264;28;20049;-69
2023/01/21 00:20:33;;;;;;;59.72;25.40;;;-3.50;99.90;;;-5.53;100.00;101665.41;5008313;28;20034;-69
2023/01/21 00:22:59;;;;;;;56.75;23.80;;;-3.60;99.90;;;-5.70;100.00;101677.84;5009546;28;20728;-69
2023/01/21 00:25:25;;;;;;;48.97;22.05;;;-3.90;99.90;;;-5.87;100.00;101686.75;5004539;28;20065;-70
2023/01/21 00:27:51;;;;;;;51.58;22.25;;;-4.00;99.90;;;-5.99;100.00;101684.75;5004483;28;20505;-69
2023/01/21 00:30:16;;;;;;;51.30;22.77;;;-4.10;99.90;;;-5.87;100.00;101691.19;5003633;28;20035;-69
2023/01/21 00:32:42;;;;;;;60.08;25.00;;;-4.10;99.90;;;-5.72;100.00;101690.38;5017761;28;20034;-69
2023/01/21 00:35:08;;;;;;;54.78;23.38;;;-4.00;99.90;;;-5.53;100.00;101686.69;5012623;28;20088;-69
2023/01/21 00:37:34;;;;;;;56.42;24.35;;;-3.90;99.90;;;-5.46;100.00;101690.72;5009645;28;20394;-69
2023/01/21 00:40:00;;;;;;;65.32;26.40;;;-3.80;99.90;;;-5.49;100.00;101699.72;5013127;28;20041;-69
2023/01/21 00:42:26;;;;;;;58.05;24.60;;;-3.70;99.90;;;-5.66;100.00;101700.66;4997487;28;20394;-69
2023/01/21 00:44:53;;;;;;;52.22;23.52;;;-3.80;99.90;;;-5.87;100.00;101704.50;5009671;28;20046;-69
2023/01/21 00:47:19;;;;;;;49.65;21.98;;;-4.00;99.90;;;-6.07;100.00;101709.16;5013973;28;20066;-69
2023/01/21 00:49:44;;;;;;;55.05;21.95;;;-4.20;99.90;;;-6.20;100.00;101708.94;5010106;28;20106;-69
2023/01/21 00:52:10;;;;;;;47.83;21.67;;;-4.30;99.90;;;-6.28;100.00;101714.66;5007136;28;20037;-68
2023/01/21 00:54:36;;;;;;;48.25;21.60;;;-4.40;99.90;;;-6.39;100.00;101709.91;5013739;28;20036;-69
2023/01/21 00:57:01;;;;;;;50.78;22.30;;;-4.50;99.90;;;-6.26;100.00;101712.78;5001927;28;20471;-69
2023/01/21 00:59:27;;;;;;;53.17;22.58;;;-4.50;99.90;;;-6.41;100.00;101714.44;5007684;28;20485;-70
2023/01/21 01:01:53;;;;;;;49.55;21.00;;;-4.60;99.90;;;-6.47;100.00;101711.22;5013334;28;20038;-68
2023/01/21 01:04:19;;;;;;;46.42;21.08;;;-4.60;99.90;;;-6.53;100.00;101715.06;5013853;28;20084;-68
2023/01/21 01:06:45;;;;;;;48.67;20.80;;;-4.60;99.90;;;-6.57;100.00;101719.69;5008207;28;20042;-68
2023/01/21 01:09:11;;;;;;;50.78;20.67;;;-4.70;99.90;;;-6.57;100.00;101729.44;5003817;28;20096;-69
2023/01/21 01:11:38;;;;;;;55.15;21.85;;;-4.70;99.90;;;-6.57;100.00;101719.69;5013229;28;20105;-68
2023/01/21 01:14:04;;;;;;;49.65;21.65;;;-4.70;99.90;;;-6.42;100.00;101726.00;5001562;28;20409;-69
2023/01/21 01:16:30;;;;;;;49.75;21.85;;;-4.60;99.90;;;-6.47;100.00;101727.16;5000953;28;20037;-69
2023/01/21 01:18:56;;;;;;;50.42;21.48;;;-4.60;99.90;;;-6.37;100.00;101739.03;5007192;28;20045;-69
2023/01/21 01:21:23;;;;;;;60.72;24.52;;;-4.60;99.90;;;-6.14;100.00;101739.63;5009564;28;20042;-70
2023/01/21 01:23:53;;;;;;;56.85;22.42;;;-4.40;99.90;;;-6.13;100.00;101750.19;5007278;28;20096;-69
2023/01/21 01:26:20;;;;;;;54.15;21.48;;;-4.40;99.90;;;-6.15;100.00;101748.53;5008152;28;20041;-69
2023/01/21 01:28:47;;;;;;;51.05;22.98;;;-4.30;99.90;;;-6.15;100.00;101748.53;5012853;28;20120;-69
2023/01/21 01:31:16;;;;;;;59.03;23.00;;;-4.30;99.90;;;-6.07;100.00;101759.63;5006813;28;20152;-69
2023/01/21 01:33:42;;;;;;;56.35;22.85;;;-4.20;99.90;;;-5.96;100.00;101767.00;5005991;28;20040;-69
2023/01/21 01:36:14;;;;;;;56.63;23.63;;;-4.10;99.90;;;-5.87;100.00;101758.53;5008077;28;20494;-69
2023/01/21 01:38:40;;;;;;;64.95;25.13;;;-4.00;99.90;;;-5.68;100.00;101768.19;5003934;28;20369;-69
2023/01/21 01:41:07;;;;;;;56.38;23.55;;;-3.80;99.90;;;-5.55;100.00;101765.72;5012846;28;20493;-69
2023/01/21 01:43:58;;;;;;;72.65;26.50;;;-3.70;99.90;;;-5.31;100.00;101770.59;5012603;28;20493;-69
2023/01/21 01:46:29;;;;;;;59.58;24.38;;;-3.40;99.90;;;-5.21;100.00;101779.78;5012878;28;20044;-69
2023/01/21 01:49:14;;;;;;;62.90;24.65;;;-3.30;99.90;;;-5.04;100.00;101776.16;4978905;28;20042;-69
2023/01/21 01:51:52;;;;;;;56.95;23.98;;;-3.20;99.90;;;-4.92;100.00;101794.09;5008083;28;20176;-69
2023/01/21 01:54:28;;;;;;;55.67;24.08;;;-3.00;99.90;;;-4.80;100.00;101784.53;5012624;28;20038;-69
2023/01/21 01:57:00;;;;;;;52.20;22.98;;;-2.90;99.90;;;-4.72;100.00;101784.09;5006665;28;20044;-69
2023/01/21 01:59:27;;;;;;;62.08;24.52;;;-2.80;99.90;;;-4.64;100.00;101792.53;5002900;28;20165;-69
2023/01/21 02:01:55;;;;;;;66.87;26.50;;;-2.70;99.90;;;-4.59;100.00;101791.41;5002100;28;20038;-69
2023/01/21 02:04:28;;;;;;;67.53;26.67;;;-2.70;99.90;;;-4.52;100.00;101804.25;5005868;28;20081;-69
2023/01/21 02:06:56;;;;;;;56.13;24.50;;;-2.60;99.90;;;-4.52;100.00;101793.59;5013135;28;20042;-69
2023/01/21 02:09:28;;;;;;;56.55;23.10;;;-2.60;99.90;;;-4.37;100.00;101812.31;4995568;28;20075;-69
2023/01/21 02:12:02;;;;;;;63.55;25.13;;;-2.50;99.90;;;-4.37;100.00;101820.28;4995547;28;20506;-69
2023/01/21 02:14:30;;;;;;;60.20;24.20;;;-2.50;99.90;;;-4.22;100.00;101831.84;4996322;28;20042;-69
2023/01/21 02:17:26;;;;;;;65.35;25.17;;;-2.40;99.90;;;-4.15;100.00;101832.34;5000650;28;20263;-70
2023/01/21 02:20:27;;;;;;;60.75;24.75;;;-2.30;99.90;;;-4.15;100.00;101843.03;5002910;28;20038;-69
2023/01/21 02:23:20;;;;;;;57.72;24.35;;;-2.30;99.90;;;-4.08;100.00;101852.34;5011848;28;20053;-70
2023/01/21 02:26:50;;;;;;;64.82;25.00;;;-2.20;99.90;;;-3.96;100.00;101859.63;4994392;28;20034;-70
2023/01/21 02:30:03;;;;;;;57.83;24.33;;;-2.20;99.90;;;-3.92;100.00;101857.63;5009142;28;20126;-70
2023/01/21 02:33:21;;;;;;;55.00;22.25;;;-2.10;99.90;;;-3.75;100.00;101864.59;4995402;28;20030;-69
2023/01/21 02:36:25;;;;;;;57.47;22.13;;;-2.00;99.90;;;-3.65;100.00;101870.25;5001682;28;20406;-70
2023/01/21 02:39:09;;;;;;;54.78;23.63;;;-1.90;99.90;;;-3.71;100.00;101859.94;5008144;28;20493;-70
2023/01/21 02:42:10;;;;;;;54.10;23.13;;;-1.80;99.90;;;-3.54;100.00;101872.25;5007549;28;20065;-69
2023/01/21 02:45:06;;;;;;;53.60;22.73;;;-1.70;99.90;;;-3.47;100.00;101878.91;5005989;28;20112;-69
2023/01/21 02:47:45;;;;;;;50.53;21.95;;;-1.70;99.90;;;-3.51;100.00;101877.41;5000819;28;21032;-70
2023/01/21 02:50:19;;;;;;;50.25;22.20;;;-1.60;99.90;;;-3.44;100.00;101888.56;5006280;28;20034;-69
2023/01/21 02:52:54;;;;;;;51.83;23.05;;;-1.60;99.90;;;-3.45;100.00;101882.34;5011575;28;20041;-70
2023/01/21 02:55:28;;;;;;;54.95;23.13;;;-1.60;99.90;;;-3.42;100.00;101892.84;5005156;28;20397;-70
2023/01/21 02:58:03;;;;;;;49.50;21.95;;;-1.60;99.90;;;-3.40;100.00;101892.75;5007143;28;20081;-70
2023/01/21 03:00:56;;;;;;;50.78;21.85;;;-1.60;99.90;;;-3.26;100.00;101891.88;5005300;28;20034;-70
2023/01/21 03:04:12;;;;;;;54.05;22.20;;;-1.50;99.90;;;-3.28;100.00;101894.69;5000685;28;20417;-70
2023/01/21 03:07:11;;;;;;;56.28;22.50;;;-1.50;99.90;;;-3.28;100.00;101892.00;5008835;28;20144;-70
2023/01/21 03:09:37;;;;;;;59.63;23.57;;;-1.40;99.90;;;-3.22;100.00;101901.41;5007038;28;20060;-70
2023/01/21 03:12:38;;;;;;;50.85;23.45;;;-1.40;99.90;;;-3.19;100.00;101903.91;5007309;28;20038;-70
2023/01/21 03:18:24;;;;;;;57.72;23.10;;;-1.30;99.90;;;-3.15;100.00;101909.91;5007236;28;20040;-69
2023/01/21 03:21:06;;;;;;;55.35;23.83;;;-1.30;99.90;;;-3.12;100.00;101910.59;5005844;28;20045;-70
2023/01/21 03:23:37;;;;;;;50.55;23.25;;;-1.30;99.90;;;-3.16;100.00;101903.72;5002389;28;20080;-70
2023/01/21 03:26:06;;;;;;;54.38;22.35;;;-1.40;99.90;;;-3.14;100.00;101917.84;5012020;28;20152;-70
2023/01/21 03:28:41;;;;;;;53.90;22.23;;;-1.30;99.90;;;-3.15;100.00;101909.91;5005282;28;20444;-70
2023/01/21 03:31:17;;;;;;;56.70;24.38;;;-1.30;99.90;;;-3.08;100.00;101905.91;5010811;28;20030;-70
2023/01/21 03:33:47;;;;;;;54.72;22.80;;;-1.30;99.90;;;-2.98;100.00;101908.84;5010332;28;20503;-70
2023/01/21 03:36:35;;;;;;;52.67;22.08;;;-1.20;99.90;;;-2.99;100.00;101904.47;4996136;28;20057;-70
2023/01/21 03:39:13;;;;;;;55.67;23.00;;;-1.20;99.90;;;-3.01;100.00;101911.72;5010081;28;20125;-70
2023/01/21 03:41:40;;;;;;;54.90;21.90;;;-1.20;99.90;;;-3.01;100.00;101911.72;5010149;28;20496;-70
2023/01/21 03:44:05;;;;;;;47.08;21.52;;;-1.20;99.90;;;-2.99;100.00;101915.13;5002555;28;20516;-70
2023/01/21 03:46:47;;;;;;;53.45;21.60;;;-1.20;99.90;;;-2.98;100.00;101903.50;5001205;28;20042;-68
2023/01/21 03:49:45;;;;;;;50.05;22.52;;;-1.20;99.90;;;-2.92;100.00;101903.09;5004111;28;20042;-69
2023/01/21 03:52:13;;;;;;;54.70;22.67;;;-1.10;99.90;;;-2.87;100.00;101909.03;5005953;28;20052;-69
2023/01/21 03:54:39;;;;;;;;;;;-1.10;99.90;;;-2.91;100.00;101908.38;4991745;28;20062;-69
2023/01/21 03:57:05;;;;;;;51.47;21.23;;;-1.10;99.90;;;-2.91;100.00;101907.53;5008884;28;20285;-68
2023/01/21 03:59:30;;;;;;;53.75;22.30;;;-1.10;99.90;;;-2.89;100.00;101913.63;5005586;28;20045;-71
2023/01/21 04:01:56;;;;;;;51.60;21.67;;;-1.10;99.90;;;-2.87;100.00;101908.16;5005059;28;20041;-69
2023/01/21 04:04:22;;;;;;;50.05;21.67;;;-1.10;99.90;;;-2.84;100.00;101908.84;5002487;28;20041;-69
2023/01/21 04:06:47;;;;;;;47.40;20.15;;;-1.10;99.90;;;-2.81;100.00;101903.28;5005391;28;20378;-69
2023/01/21 04:09:13;;;;;;;49.60;20.88;;;-1.00;99.90;;;-2.77;100.00;101907.47;5006476;28;20553;-69
2023/01/21 04:11:39;;;;;;;49.58;22.05;;;-1.00;99.90;;;-2.71;100.00;101908.91;5010335;28;20042;-69
2023/01/21 04:14:04;;;;;;;49.33;22.20;;;-1.00;99.90;;;-2.71;100.00;101913.38;4992015;28;20379;-69
2023/01/21 04:16:30;;;;;;;52.28;21.70;;;-1.00;99.90;;;-2.66;100.00;101906.78;5008121;28;20144;-69
2023/01/21 04:18:56;;;;;;;46.65;21.27;;;-0.90;99.90;;;-2.68;100.00;101916.72;4997794;28;20027;-69
2023/01/21 04:21:22;;;;;;;51.33;21.95;;;-0.90;99.90;;;-2.58;100.00;101924.13;4992928;28;20496;-69
2023/01/21 04:23:47;;;;;;;57.17;21.23;;;-0.90;99.90;;;-2.48;100.00;101922.59;5003926;28;20088;-70
2023/01/21 04:26:15;;;;;;;50.28;20.15;;;-0.80;99.90;;;-2.49;100.00;101924.41;5009388;28;20049;-70
2023/01/21 04:28:41;;;;;;;45.85;20.77;;;-0.80;99.90;;;-2.48;100.00;101919.94;5003076;28;20124;-71
2023/01/21 04:31:07;;;;;;;48.10;20.83;;;-0.80;99.90;;;-2.43;100.00;101923.16;5006479;28;20038;-70
2023/01/21 04:33:33;;;;;;;49.00;19.95;;;-0.80;99.90;;;-2.41;100.00;101925.72;5008131;28;20104;-71
2023/01/21 04:35:59;;;;;;;48.13;20.73;;;-0.70;99.90;;;-2.45;100.00;101927.75;4999305;28;20053;-70
2023/01/21 04:38:26;;;;;;;43.85;21.10;;;-0.70;99.90;;;-2.50;100.00;101928.03;5009873;28;20068;-70
2023/01/21 04:40:52;;;;;;;41.70;18.13;;;-0.70;99.90;;;-2.47;100.00;101932.34;5009794;28;20030;-70
2023/01/21 04:43:18;;;;;;;47.67;20.33;;;-0.70;99.90;;;-2.39;100.00;101934.47;5006506;28;20050;-72
2023/01/21 04:45:44;;;;;;;43.85;19.17;;;-0.70;99.90;;;-2.36;100.00;101939.66;5002701;28;20038;-71
2023/01/21 04:48:09;;;;;;;43.33;19.70;;;-0.60;99.90;;;-2.37;100.00;101948.63;5007776;28;20048;-72
2023/01/21 04:50:35;;;;;;;47.15;20.42;;;-0.60;99.90;;;-2.42;100.00;101940.91;4998295;28;20057;-71
2023/01/21 04:53:01;;;;;;;48.15;21.08;;;-0.70;99.90;;;-2.40;100.00;101946.13;4999997;28;20053;-71
2023/01/21 04:55:27;;;;;;;41.58;19.40;;;-0.60;99.90;;;-2.50;100.00;101949.41;4998688;28;20034;-71
2023/01/21 04:57:52;;;;;;;44.30;18.98;;;-0.70;99.90;;;-2.52;100.00;101946.00;5005154;28;20034;-71
2023/01/21 05:00:19;;;;;;;44.40;19.60;;;-0.70;99.90;;;-2.51;100.00;101958.38;5008267;28;20473;-71
2023/01/21 05:02:44;;;;;;;42.95;19.80;;;-0.70;99.90;;;-2.56;100.00;101963.19;5007252;28;20256;-70
2023/01/21 05:05:10;;;;;;;49.45;21.77;;;-0.70;99.90;;;-2.54;100.00;101955.91;5008938;28;20401;-70
2023/01/21 05:07:36;;;;;;;48.90;19.90;;;-0.80;99.90;;;-2.52;100.00;101962.03;4990074;28;20030;-70
2023/01/21 05:10:01;;;;;;;42.38;18.70;;;-0.70;99.90;;;-2.47;100.00;101961.75;4995442;28;20383;-70
2023/01/21 05:12:27;;;;;;;47.92;20.67;;;-0.70;99.90;;;-2.46;100.00;101971.47;5009513;28;20050;-70
2023/01/21 05:14:56;;;;;;;47.50;20.92;;;-0.70;99.90;;;-2.49;100.00;101959.16;5000207;28;20092;-70
2023/01/21 05:17:22;;;;;;;44.55;20.52;;;-0.70;99.90;;;-2.52;100.00;101964.69;5014195;28;20056;-70
2023/01/21 05:19:52;;;;;;;42.88;19.35;;;-0.70;99.90;;;-2.48;100.00;101968.88;5013350;28;20049;-70
2023/01/21 05:22:18;;;;;;;48.33;19.88;;;-0.70;99.90;;;-2.57;100.00;101968.63;5012521;28;20073;-71
2023/01/21 05:24:44;;;;;;;44.92;20.80;;;-0.70;99.90;;;-2.55;100.00;101970.25;5016066;28;20029;-71
2023/01/21 05:27:09;;;;;;;45.70;20.55;;;-0.70;99.90;;;-2.60;100.00;101978.53;5011879;28;20061;-70
2023/01/21 05:29:35;;;;;;;46.28;20.95;;;-0.80;99.90;;;-2.60;100.00;101975.03;5012414;28;20042;-70
2023/01/21 05:32:01;;;;;;;46.05;20.58;;;-0.80;99.90;;;-2.60;100.00;101981.22;5011212;28;20414;-70
2023/01/21 05:34:26;;;;;;;44.83;20.65;;;-0.80;99.90;;;-2.59;100.00;101982.09;5009169;28;20054;-70
2023/01/21 05:36:52;;;;;;;46.42;20.60;;;-0.80;99.90;;;-2.53;100.00;101981.69;5014829;28;20440;-70
2023/01/21 05:39:18;;;;;;;49.35;20.35;;;-0.80;99.90;;;-2.43;100.00;101992.66;5012257;28;20038;-69
2023/01/21 05:41:43;;;;;;;45.92;20.38;;;-0.70;99.90;;;-2.44;100.00;101985.59;5012281;28;20038;-69
2023/01/21 05:44:09;;;;;;;47.42;20.25;;;-0.70;99.90;;;-2.40;100.00;101983.56;5001593;28;20057;-70
2023/01/21 05:46:35;;;;;;;42.55;19.02;;;-0.70;99.90;;;-2.44;100.00;101987.38;5013228;28;20037;-70
2023/01/21 05:49:01;;;;;;;42.20;18.60;;;-0.70;99.90;;;-2.31;100.00;101993.69;5008244;28;20049;-70
2023/01/21 05:51:26;;;;;;;47.67;18.98;;;-0.60;99.90;;;-2.32;100.00;101998.16;5002172;28;20038;-71
2023/01/21 05:53:52;;;;;;;39.13;19.33;;;-0.60;99.90;;;-2.32;100.00;101997.31;4999316;28;20041;-70
2023/01/21 05:56:18;;;;;;;41.97;18.60;;;-0.60;99.90;;;-2.28;100.00;102004.16;5004443;28;20076;-70
2023/01/21 05:58:43;;;;;;;41.30;18.45;;;-0.60;99.90;;;-2.31;100.00;101991.00;5011617;28;20025;-70
2023/01/21 06:01:09;;;;;;;42.17;17.92;;;-0.50;99.90;;;-2.30;100.00;101998.06;5007047;28;20390;-70
2023/01/21 06:03:36;;;;;;;45.78;18.60;;;-0.50;99.90;;;-2.26;100.00;102001.38;5012207;28;20170;-70
2023/01/21 06:06:02;;;;;;;40.17;18.73;;;-0.50;99.90;;;-2.28;100.00;102008.66;5012100;28;20902;-71
2023/01/21 06:08:28;;;;;;;40.03;17.98;;;-0.50;99.90;;;-2.36;100.00;101998.47;4995586;28;20141;-70
2023/01/21 06:10:55;;;;;;;40.92;18.55;;;-0.50;99.90;;;-2.32;100.00;102008.00;4984861;28;20046;-71
2023/01/21 06:13:21;;;;;;;43.05;18.90;;;-0.50;99.90;;;-2.27;100.00;102013.03;5006148;28;20121;-72
2023/01/21 06:15:48;;;;;;;45.33;19.27;;;-0.50;99.90;;;-2.29;100.00;102020.31;5011694;28;20065;-71
2023/01/21 06:18:13;;;;;;;41.17;18.77;;;-0.50;99.90;;;-2.33;100.00;102015.16;5003468;28;20049;-72
2023/01/21 06:20:39;;;;;;;41.88;19.05;;;-0.60;99.90;;;-2.22;100.00;102019.81;5014980;28;20037;-72
2023/01/21 06:23:05;;;;;;;40.33;17.58;;;-0.50;99.90;;;-2.14;100.00;102029.16;5008759;28;20034;-72
2023/01/21 06:25:32;;;;;;;40.13;18.63;;;-0.50;99.90;;;-2.21;100.00;102032.22;5010806;28;20075;-71
2023/01/21 06:28:00;;;;;;;47.03;18.15;;;-0.50;99.90;;;-2.24;100.00;102028.91;5001098;28;20053;-71
2023/01/21 06:30:26;;;;;;;41.08;18.38;;;-0.50;99.90;;;-2.24;100.00;102040.44;4979138;28;20048;-72
2023/01/21 06:32:52;;;;;;;39.70;17.02;;;-0.50;99.90;;;-2.20;100.00;102044.63;4996430;28;20517;-73
2023/01/21 06:35:18;;;;;;;37.72;16.92;;;-0.40;99.90;;;-2.27;100.00;102056.69;4999819;28;20113;-73
2023/01/21 06:37:45;;;;;;;40.50;16.95;;;-0.40;99.90;;;-2.27;100.00;102056.69;5004826;28;20466;-72
2023/01/21 06:40:13;;;;;;;39.10;16.45;;;-0.50;99.90;;;-2.28;100.00;102067.47;5007304;28;20440;-72
2023/01/21 06:42:39;;;;;;;42.20;17.23;;;-0.50;99.90;;;-2.30;100.00;102075.59;4984369;28;20347;-69
2023/01/21 06:45:06;;;;;;;38.38;17.58;;;-0.50;99.90;;;-2.32;100.00;102075.69;5010749;28;20775;-70
2023/01/21 06:47:31;;;;;;;38.65;17.77;;;-0.50;99.90;;;-2.37;100.00;102074.28;5005693;28;20026;-72
2023/01/21 06:49:57;;;;;;;37.72;17.90;;;-0.60;99.90;;;-2.40;100.00;102082.47;5015894;28;20080;-71
2023/01/21 06:52:23;;;;;;;42.13;17.50;;;-0.60;99.90;;;-2.36;100.00;102087.53;5004889;28;20457;-70
2023/01/21 06:54:48;;;;;;;43.15;18.02;;;-0.60;99.90;;;-2.39;100.00;102086.84;5005059;28;20060;-70
2023/01/21 06:57:15;;;;;;;33.58;16.35;;;-0.60;99.90;;;-2.36;100.00;102094.72;5005840;28;20088;-70
2023/01/21 06:59:40;;;;;;;36.63;16.58;;;-0.60;99.90;;;-2.35;100.00;102101.78;5010743;28;20113;-71
2023/01/21 07:02:06;;;;;;;35.72;16.30;;;-0.50;99.90;;;-2.34;100.00;102103.50;5007292;28;20065;-71
2023/01/21 07:04:32;;;;;;;36.80;16.67;;;-0.50;99.90;;;-2.32;100.00;102101.59;5000233;28;20039;-71
2023/01/21 07:06:58;;;;;;;36.03;16.30;;;-0.50;99.90;;;-2.32;100.00;102104.25;4992358;28;20494;-70
2023/01/21 07:09:24;;;;;;;38.53;16.58;;;-0.50;99.90;;;-2.27;100.00;102107.50;5006985;28;20046;-71
2023/01/21 07:11:49;;;;;;;41.13;17.30;;;-0.50;99.90;;;-2.28;100.00;102105.78;4994067;28;20034;-70
2023/01/21 07:14:15;;;;;;;37.55;17.15;;;-0.50;99.90;;;-2.29;100.00;102116.56;5011024;28;20042;-70
2023/01/21 07:16:41;;;;;;;37.97;16.25;;;-0.50;99.90;;;-2.31;100.00;102114.00;5021015;28;20041;-71
2023/01/21 07:19:06;;;;;;;40.33;17.35;;;-0.50;99.90;;;-2.28;100.00;102113.78;5010762;28;20038;-70
2023/01/21 07:21:32;;;;;;;35.35;16.80;;;-0.50;99.90;;;-2.30;100.00;102115.72;5010931;28;20046;-72
2023/01/21 07:23:59;;;;;;;36.17;16.30;;;-0.50;99.90;;;-2.24;100.00;102118.00;5006747;28;20069;-71
2023/01/21 07:26:25;;;;;;;40.88;17.63;;;-0.50;99.90;;;-2.26;100.00;102122.56;5010229;28;20046;-72
2023/01/21 07:28:50;;;;;;;39.25;16.85;;;-0.50;99.90;;;-2.20;100.00;102113.31;5004607;28;20125;-70
2023/01/21 07:31:16;;;;;;;39.60;17.75;;;-0.40;99.90;;;-2.16;100.00;102120.19;5000928;28;20100;-71
2023/01/21 07:33:42;;;;;;;39.10;17.35;;;-0.40;99.90;;;-2.15;100.00;102129.06;5009343;28;20037;-71
2023/01/21 07:36:08;;;;;;;40.50;16.88;;;-0.40;99.90;;;-2.19;100.00;102118.56;4999353;28;20038;-70
2023/01/21 07:38:33;;;;;;;40.05;17.30;;;-0.40;99.90;;;-2.08;100.00;102127.72;5005234;28;20033;-71
2023/01/21 07:40:59;;;;;;;36.60;16.50;;;-0.30;99.90;;;-2.11;100.00;102125.25;4994466;28;20385;-72
2023/01/21 07:43:26;;;;;;;36.33;16.02;;;-0.30;99.90;;;-2.01;100.00;102123.69;4992503;28;20042;-71
2023/01/21 07:45:53;;;;;;;39.38;16.50;;;-0.30;99.90;;;-2.05;100.00;102127.53;5006138;28;20041;-71
2023/01/21 07:48:19;;;;;;;38.50;16.08;;;-0.30;99.90;;;-2.08;100.00;102130.41;5007296;28;20052;-71
2023/01/21 07:50:45;;;;;;;33.60;15.32;;;-0.30;99.90;;;-1.97;100.00;102138.59;5008053;28;20038;-71
2023/01/21 07:53:11;;;;;;;36.75;17.10;;;-0.20;99.90;;;-2.00;100.00;102138.78;5004382;28;20038;-71
2023/01/21 07:55:37;;;;;;;40.88;17.00;;;-0.20;99.90;;;-2.01;100.00;102137.06;5006075;28;20034;-72
2023/01/21 07:58:03;;;;;;;37.47;16.73;;;-0.20;99.90;;;-2.00;100.00;102141.47;5008148;28;20037;-72
2023/01/21 08:00:29;;;;;;;38.95;17.80;;;-0.20;99.90;;;-2.04;100.00;102140.78;5004868;28;20414;-72
2023/01/21 08:02:56;;;;;;;35.90;15.90;;;-0.20;99.90;;;-2.00;100.00;102146.81;5009260;28;20064;-71
2023/01/21 08:05:23;;;;;;;39.13;16.98;;;-0.20;99.90;;;-2.00;100.00;102154.84;5009829;28;20076;-71
2023/01/21 08:07:50;;;;;;;39.47;16.60;;;-0.20;99.90;;;-1.97;100.00;102165.34;5025706;28;20055;-71
2023/01/21 08:10:17;;;;;;;37.38;16.35;;;-0.20;99.90;;;-1.97;100.00;102168.03;5010389;28;20041;-71
2023/01/21 08:12:43;;;;;;;40.80;16.95;;;-0.20;99.90;;;-1.97;100.00;102168.03;5010187;28;20065;-72
2023/01/21 08:15:10;;;;;;;37.75;17.67;;;-0.20;99.90;;;-1.95;100.00;102171.44;5010370;28;20069;-72
2023/01/21 08:17:42;;;;;;;35.05;16.38;;;-0.20;99.90;;;-1.90;100.00;102177.38;5006902;28;20358;-71
2023/01/21 08:20:10;;;;;;;38.60;17.10;;;-0.10;99.90;;;-1.86;100.00;102170.00;5002693;28;20484;-71
2023/01/21 08:22:37;;;;;;;39.60;17.67;;;-0.10;99.90;;;-1.93;100.00;102166.03;5000803;28;20126;-72
2023/01/21 08:25:04;;;;;;;38.90;16.67;;;-0.10;99.90;;;-1.92;100.00;102173.94;5003376;28;20041;-71
2023/01/21 08:27:31;;;;;;;37.50;17.15;;;-0.10;99.90;;;-1.86;100.00;102188.75;4987854;28;20045;-72
2023/01/21 08:29:57;;;;;;;37.45;15.85;;;-0.10;99.90;;;-1.84;100.00;102189.50;5008311;28;20058;-71
2023/01/21 08:32:22;;;;;;;37.55;16.73;;;-0.10;99.90;;;-1.84;100.00;102185.97;5005497;28;20030;-71
2023/01/21 08:34:49;;;;;;;39.60;17.20;;;0.00;99.90;;;-1.83;100.00;102190.38;5003668;28;20421;-72
2023/01/21 08:37:16;;;;;;;45.88;19.40;;;0.00;99.90;;;-1.79;100.00;102190.06;5002963;28;20454;-72
2023/01/21 08:39:41;;;;;;;48.30;21.67;;;0.00;99.90;;;-1.72;100.00;102190.53;5006742;28;20037;-71
2023/01/21 08:42:07;;;;;;;42.35;20.23;;;0.10;99.90;;;-1.74;100.00;102195.13;5009938;28;20370;-71
2023/01/21 08:44:34;;;;;;;40.83;19.40;;;0.10;99.90;;;-1.71;100.00;102197.59;5013369;28;20097;-71
2023/01/21 08:47:00;;;;;;;42.05;22.88;;;0.10;99.90;;;-1.72;100.00;102201.25;5008632;28;20034;-71
2023/01/21 08:49:26;;;;;;;41.90;20.70;;;0.10;99.90;;;-1.68;100.00;102201.91;5017246;28;20413;-71
2023/01/21 08:51:51;;;;;;;39.35;17.58;;;0.10;99.90;;;-1.63;100.00;102195.28;5004000;28;20030;-72
2023/01/21 08:54:18;;;;;;;37.65;18.10;;;0.10;99.90;;;-1.65;100.00;102212.44;4985962;28;20034;-72
2023/01/21 08:56:43;;;;;;;38.50;17.77;;;0.20;99.90;;;-1.59;100.00;102217.38;5008784;28;20091;-71
2023/01/21 08:59:09;;;;;;;38.45;17.10;;;0.20;99.90;;;-1.63;100.00;102216.72;4994978;28;20046;-71
2023/01/21 09:01:39;;;;;;;38.90;16.65;;;0.20;99.90;;;-1.65;100.00;102215.94;5007096;28;20462;-71
2023/01/21 09:04:06;;;;;;;37.22;15.95;;;0.20;99.90;;;-1.58;100.00;102220.94;5008846;28;20444;-71
2023/01/21 09:06:32;;;;;;;34.30;16.13;;;0.20;99.90;;;-1.62;100.00;102213.06;4998968;28;20092;-71
2023/01/21 09:08:58;;;;;;;36.63;15.50;;;0.30;99.90;;;-1.64;100.00;102217.66;5005972;28;20092;-71
2023/01/21 09:11:26;;;;;;;33.60;15.85;;;0.30;99.90;;;-1.69;100.00;102218.94;5010441;28;20030;-72
2023/01/21 09:13:51;;;;;;;37.28;16.90;;;0.20;99.90;;;-1.65;100.00;102215.94;5013220;28;20045;-71
2023/01/21 09:16:21;;;;;;;36.58;15.48;;;0.20;99.90;;;-1.61;100.00;102219.28;5010771;28;20113;-71
2023/01/21 09:18:48;;;;;;;37.05;15.68;;;0.30;99.90;;;-1.53;100.00;102224.16;5007578;28;20041;-72
2023/01/21 09:21:14;;;;;;;39.07;16.03;;;0.30;99.90;;;-1.55;100.00;102223.41;5011249;28;20037;-71
2023/01/21 09:23:41;;;;;;;32.95;15.43;;;0.30;99.90;;;-1.52;100.00;102228.56;5002435;28;20038;-72
2023/01/21 09:26:16;;;;;;;35.45;15.43;;;0.40;99.90;;;-1.62;100.00;102210.38;5006249;28;20062;-71
2023/01/21 09:28:45;;;;;;;32.10;14.77;;;0.30;99.90;;;-1.66;100.00;102216.91;4997263;28;20065;-72
2023/01/21 09:31:17;;;;;;;34.67;14.73;;;0.30;99.90;;;-1.64;100.00;102220.34;5008981;28;20039;-72
2023/01/21 09:33:50;;;;;;;35.58;14.48;;;0.30;99.90;;;-1.62;100.00;102221.09;5010736;28;20037;-72
2023/01/21 09:36:23;;;;;;;33.88;14.10;;;0.30;99.90;;;-1.65;100.00;102210.59;4996919;28;20065;-72
2023/01/21 09:38:50;;;;;;;41.25;17.48;;;0.20;99.90;;;-1.68;100.00;102221.50;5002874;28;20034;-72
2023/01/21 09:41:50;;;;;;;37.78;16.10;;;0.30;99.90;;;-1.61;100.00;102230.84;5007354;28;20030;-71
2023/01/21 09:44:43;;;;;;;36.53;15.23;;;0.30;99.90;;;-1.61;100.00;102225.50;5003572;28;20485;-72
2023/01/21 09:47:38;;;;;;;31.88;14.18;;;0.30;99.90;;;-1.60;100.00;102237.91;5003890;28;20076;-72
2023/01/21 09:50:22;;;;;;;34.03;13.10;;;0.30;99.90;;;-1.61;100.00;102230.84;5006705;28;20606;-72
2023/01/21 09:52:54;;;;;;;34.85;14.15;;;0.30;99.90;;;-1.54;100.00;102230.47;5008008;28;20033;-72
2023/01/21 09:55:39;;;;;;;31.75;13.85;;;0.40;99.90;;;-1.49;100.00;102239.91;4977554;28;20209;-71
2023/01/21 09:58:33;;;;;;;28.52;13.75;;;0.40;99.90;;;-1.49;100.00;102236.38;5008948;28;20393;-71
2023/01/21 10:01:22;;;;;;;31.38;13.57;;;0.40;99.90;;;-1.50;100.00;102240.03;5009569;28;20042;-72
2023/01/21 10:04:00;;;;;;;33.97;13.57;;;0.40;99.90;;;-1.48;100.00;102238.09;5008941;28;20117;-72
2023/01/21 10:07:02;;;;;;;31.77;13.60;;;0.40;99.90;;;-1.45;100.00;102232.56;5000549;28;20073;-72
2023/01/21 10:09:56;;;;;;;26.85;12.13;;;0.50;99.90;;;-1.41;100.00;102242.09;5004301;28;20046;-72
2023/01/21 10:12:39;;;;;;;33.25;13.68;;;0.50;99.90;;;-1.35;100.00;102244.38;5003671;28;20050;-72